sensor_id;sensor_type;location;lat;lon;timestamp;pressure;altitude;pressure_sealevel;temperature;humidity
64141;BME280;50436;50.618;7.932;2022-12-07T00:04:05;96511.94;;;1.45;100.00
64141;BME280;50436;50.618;7.932;2022-12-07T00:06:52;96515.25;;;1.54;100.00
64141;BME280;50436;50.618;7.932;2022-12-07T00:09:38;96506.72;;;1.52;100.00
64141;BME280;50436;50.618;7.932;2022-12-07T00:12:24;96508.88;;;1.42;100.00
64141;BME280;50436;50.618;7.932;2022-12-07T00:15:10;96508.09;;;1.48;100.00
64141;BME280;50436;50.618;7.932;2022-12-07T00:17:56;96513.19;;;1.49;100.00
64141;BME280;50436;50.618;7.932;2022-12-07T00:20:43;96509.28;;;1.45;100.00
64141;BME280;50436;50.618;7.932;2022-12-07T00:23:29;96506.28;;;1.48;100.00
64141;BME280;50436;50.618;7.932;2022-12-07T00:26:21;96503.19;;;1.45;100.00
64141;BME280;50436;50.618;7.932;2022-12-07T00:29:13;96495.09;;;1.46;100.00
64141;BME280;50436;50.618;7.932;2022-12-07T00:32:00;96494.97;;;1.54;100.00
64141;BME280;50436;50.618;7.932;2022-12-07T00:34:46;96477.59;;;1.38;100.00
64141;BME280;50436;50.618;7.932;2022-12-07T00:37:32;96486.97;;;1.48;100.00
64141;BME280;50436;50.618;7.932;2022-12-07T00:40:18;96487.38;;;1.45;100.00
64141;BME280;50436;50.618;7.932;2022-12-07T00:43:03;96486.63;;;1.51;100.00
64141;BME280;50436;50.618;7.932;2022-12-07T00:45:49;96482.97;;;1.52;100.00
64141;BME280;50436;50.618;7.932;2022-12-07T00:48:35;96483.78;;;1.52;100.00
64141;BME280;50436;50.618;7.932;2022-12-07T00:51:23;96478.41;;;1.39;100.00
64141;BME280;50436;50.618;7.932;2022-12-07T00:54:09;96480.88;;;1.41;100.00
64141;BME280;50436;50.618;7.932;2022-12-07T00:56:55;96474.66;;;1.27;100.00
64141;BME280;50436;50.618;7.932;2022-12-07T00:59:41;96471.34;;;1.18;100.00
64141;BME280;50436;50.618;7.932;2022-12-07T01:02:27;96474.66;;;1.27;100.00
64141;BME280;50436;50.618;7.932;2022-12-07T01:05:13;96465.81;;;1.34;100.00
64141;BME280;50436;50.618;7.932;2022-12-07T01:07:59;96474.59;;;1.42;100.00
64141;BME280;50436;50.618;7.932;2022-12-07T01:10:45;96459.66;;;1.27;100.00
64141;BME280;50436;50.618;7.932;2022-12-07T01:13:32;96467.94;;;1.24;100.00
64141;BME280;50436;50.618;7.932;2022-12-07T01:16:20;96468.88;;;1.38;100.00
64141;BME280;50436;50.618;7.932;2022-12-07T01:19:06;96465.28;;;1.46;100.00
64141;BME280;50436;50.618;7.932;2022-12-07T01:21:52;96463.91;;;1.50;100.00
64141;BME280;50436;50.618;7.932;2022-12-07T01:24:40;96464.50;;;1.52;100.00
64141;BME280;50436;50.618;7.932;2022-12-07T01:27:26;96462.69;;;1.52;100.00
64141;BME280;50436;50.618;7.932;2022-12-07T01:30:12;96465.06;;;1.47;100.00
64141;BME280;50436;50.618;7.932;2022-12-07T01:32:58;96458.94;;;1.40;100.00
64141;BME280;50436;50.618;7.932;2022-12-07T01:35:44;96460.72;;;1.33;100.00
64141;BME280;50436;50.618;7.932;2022-12-07T01:38:31;96461.91;;;1.30;100.00
64141;BME280;50436;50.618;7.932;2022-12-07T01:41:18;96462.97;;;1.36;100.00
64141;BME280;50436;50.618;7.932;2022-12-07T01:44:23;96464.78;;;1.35;100.00
64141;BME280;50436;50.618;7.932;2022-12-07T01:47:11;96456.44;;;1.32;100.00
64141;BME280;50436;50.618;7.932;2022-12-07T01:49:57;96461.75;;;1.38;100.00
64141;BME280;50436;50.618;7.932;2022-12-07T01:52:44;96456.50;;;1.38;100.00
64141;BME280;50436;50.618;7.932;2022-12-07T01:55:37;96457.97;;;1.48;100.00
64141;BME280;50436;50.618;7.932;2022-12-07T01:58:25;96451.06;;;1.47;100.00
64141;BME280;50436;50.618;7.932;2022-12-07T02:01:11;96449.84;;;1.43;100.00
64141;BME280;50436;50.618;7.932;2022-12-07T02:03:57;96439.72;;;1.46;100.00
64141;BME280;50436;50.618;7.932;2022-12-07T02:06:44;96446.06;;;1.52;100.00
64141;BME280;50436;50.618;7.932;2022-12-07T02:09:30;96435.50;;;1.52;100.00
64141;BME280;50436;50.618;7.932;2022-12-07T02:12:16;96440.78;;;1.52;100.00
64141;BME280;50436;50.618;7.932;2022-12-07T02:15:02;96435.50;;;1.52;100.00
64141;BME280;50436;50.618;7.932;2022-12-07T02:18:13;96432.31;;;1.56;100.00
64141;BME280;50436;50.618;7.932;2022-12-07T02:21:27;96426.56;;;1.53;100.00
64141;BME280;50436;50.618;7.932;2022-12-07T02:27:56;96425.97;;;1.51;100.00
64141;BME280;50436;50.618;7.932;2022-12-07T02:30:48;96422.31;;;1.52;100.00
64141;BME280;50436;50.618;7.932;2022-12-07T02:33:43;96426.78;;;1.51;100.00
64141;BME280;50436;50.618;7.932;2022-12-07T02:36:33;96426.09;;;1.43;100.00
64141;BME280;50436;50.618;7.932;2022-12-07T02:39:50;96423.69;;;1.48;100.00
64141;BME280;50436;50.618;7.932;2022-12-07T02:42:41;96427.97;;;1.49;100.00
64141;BME280;50436;50.618;7.932;2022-12-07T02:45:30;96427.34;;;1.47;100.00
64141;BME280;50436;50.618;7.932;2022-12-07T02:48:18;96428.16;;;1.47;100.00
64141;BME280;50436;50.618;7.932;2022-12-07T02:51:05;96421.25;;;1.46;100.00
64141;BME280;50436;50.618;7.932;2022-12-07T02:53:51;96424.09;;;1.45;100.00
64141;BME280;50436;50.618;7.932;2022-12-07T03:03:00;96421.44;;;1.45;100.00
64141;BME280;50436;50.618;7.932;2022-12-07T03:06:28;96420.84;;;1.43;100.00
64141;BME280;50436;50.618;7.932;2022-12-07T03:09:25;96411.91;;;1.44;100.00
64141;BME280;50436;50.618;7.932;2022-12-07T03:12:17;96419.81;;;1.44;100.00
64141;BME280;50436;50.618;7.932;2022-12-07T03:15:09;96410.91;;;1.45;100.00
64141;BME280;50436;50.618;7.932;2022-12-07T03:17:59;96412.31;;;1.47;100.00
64141;BME280;50436;50.618;7.932;2022-12-07T03:20:49;96411.75;;;1.52;100.00
64141;BME280;50436;50.618;7.932;2022-12-07T03:23:42;96407.31;;;1.52;100.00
64141;BME280;50436;50.618;7.932;2022-12-07T03:26:34;96407.09;;;1.54;100.00
64141;BME280;50436;50.618;7.932;2022-12-07T03:29:28;96402.84;;;1.53;100.00
64141;BME280;50436;50.618;7.932;2022-12-07T03:32:20;96407.56;;;1.57;100.00
64141;BME280;50436;50.618;7.932;2022-12-07T03:35:16;96403.09;;;1.58;100.00
64141;BME280;50436;50.618;7.932;2022-12-07T03:38:15;96403.91;;;1.58;100.00
64141;BME280;50436;50.618;7.932;2022-12-07T03:41:09;96410.38;;;1.56;100.00
64141;BME280;50436;50.618;7.932;2022-12-07T03:43:57;96397.00;;;1.57;100.00
64141;BME280;50436;50.618;7.932;2022-12-07T03:49:55;96404.09;;;1.57;100.00
64141;BME280;50436;50.618;7.932;2022-12-07T03:53:14;96404.72;;;1.59;100.00
64141;BME280;50436;50.618;7.932;2022-12-07T03:55:58;96403.09;;;1.58;100.00
64141;BME280;50436;50.618;7.932;2022-12-07T03:58:44;96407.16;;;1.60;100.00
64141;BME280;50436;50.618;7.932;2022-12-07T04:01:31;96400.81;;;1.55;100.00
64141;BME280;50436;50.618;7.932;2022-12-07T04:04:17;96400.06;;;1.61;100.00
64141;BME280;50436;50.618;7.932;2022-12-07T04:07:03;96400.44;;;1.58;100.00
64141;BME280;50436;50.618;7.932;2022-12-07T04:09:49;96391.31;;;1.60;100.00
64141;BME280;50436;50.618;7.932;2022-12-07T04:12:35;96403.31;;;1.63;100.00
64141;BME280;50436;50.618;7.932;2022-12-07T04:15:21;96397.25;;;1.69;100.00
64141;BME280;50436;50.618;7.932;2022-12-07T04:18:07;96393.81;;;1.68;100.00
64141;BME280;50436;50.618;7.932;2022-12-07T04:20:53;96391.78;;;1.71;100.00
64141;BME280;50436;50.618;7.932;2022-12-07T04:23:39;96394.41;;;1.71;100.00
64141;BME280;50436;50.618;7.932;2022-12-07T04:26:25;96397.47;;;1.67;100.00
64141;BME280;50436;50.618;7.932;2022-12-07T04:29:11;96401.09;;;1.66;100.00
64141;BME280;50436;50.618;7.932;2022-12-07T04:31:57;96392.13;;;1.61;100.00
64141;BME280;50436;50.618;7.932;2022-12-07T04:34:43;96399.84;;;1.62;100.00
64141;BME280;50436;50.618;7.932;2022-12-07T04:37:28;96398.28;;;1.68;100.00
64141;BME280;50436;50.618;7.932;2022-12-07T04:40:14;96391.38;;;1.67;100.00
64141;BME280;50436;50.618;7.932;2022-12-07T04:43:00;96394.63;;;1.69;100.00
64141;BME280;50436;50.618;7.932;2022-12-07T04:45:47;96388.94;;;1.65;100.00
64141;BME280;50436;50.618;7.932;2022-12-07T04:48:33;96393.00;;;1.68;100.00
64141;BME280;50436;50.618;7.932;2022-12-07T04:51:21;96392.59;;;1.71;100.00
64141;BME280;50436;50.618;7.932;2022-12-07T04:54:08;96392.19;;;1.67;100.00
64141;BME280;50436;50.618;7.932;2022-12-07T04:56:53;96382.03;;;1.71;100.00
64141;BME280;50436;50.618;7.932;2022-12-07T04:59:39;96370.03;;;1.62;100.00
64141;BME280;50436;50.618;7.932;2022-12-07T05:02:25;96389.19;;;1.77;100.00
64141;BME280;50436;50.618;7.932;2022-12-07T05:05:11;96391.00;;;1.77;100.00
64141;BME280;50436;50.618;7.932;2022-12-07T05:07:57;96390.19;;;1.76;100.00
64141;BME280;50436;50.618;7.932;2022-12-07T05:10:43;96382.91;;;1.78;100.00
64141;BME280;50436;50.618;7.932;2022-12-07T05:13:29;96386.75;;;1.76;100.00
64141;BME280;50436;50.618;7.932;2022-12-07T05:16:14;96387.19;;;1.79;100.00
64141;BME280;50436;50.618;7.932;2022-12-07T05:19:00;96395.69;;;1.75;100.00
64141;BME280;50436;50.618;7.932;2022-12-07T05:21:46;96394.41;;;1.71;100.00
64141;BME280;50436;50.618;7.932;2022-12-07T05:24:32;96390.59;;;1.73;100.00
64141;BME280;50436;50.618;7.932;2022-12-07T05:27:18;96391.97;;;1.69;100.00
64141;BME280;50436;50.618;7.932;2022-12-07T05:30:05;96397.25;;;1.69;100.00
64141;BME280;50436;50.618;7.932;2022-12-07T05:32:51;96392.19;;;1.67;100.00
64141;BME280;50436;50.618;7.932;2022-12-07T05:35:37;96398.28;;;1.68;100.00
64141;BME280;50436;50.618;7.932;2022-12-07T05:38:23;96395.22;;;1.71;100.00
64141;BME280;50436;50.618;7.932;2022-12-07T05:41:16;96389.34;;;1.69;100.00
64141;BME280;50436;50.618;7.932;2022-12-07T05:44:21;96389.97;;;1.71;100.00
64141;BME280;50436;50.618;7.932;2022-12-07T05:47:07;96396.88;;;1.72;100.00
64141;BME280;50436;50.618;7.932;2022-12-07T05:49:53;96395.69;;;1.75;100.00
64141;BME280;50436;50.618;7.932;2022-12-07T05:52:41;96399.53;;;1.72;100.00
64141;BME280;50436;50.618;7.932;2022-12-07T05:55:27;96399.03;;;1.62;100.00
64141;BME280;50436;50.618;7.932;2022-12-07T05:58:13;96398.66;;;1.65;100.00
64141;BME280;50436;50.618;7.932;2022-12-07T06:01:17;96406.63;;;1.72;100.00
64141;BME280;50436;50.618;7.932;2022-12-07T06:04:03;96407.25;;;1.74;100.00
64141;BME280;50436;50.618;7.932;2022-12-07T06:06:49;96398.97;;;1.83;100.00
64141;BME280;50436;50.618;7.932;2022-12-07T06:09:36;96406.91;;;1.90;100.00
64141;BME280;50436;50.618;7.932;2022-12-07T06:12:22;96395.56;;;1.89;100.00
64141;BME280;50436;50.618;7.932;2022-12-07T06:15:20;96402.47;;;1.90;100.00
64141;BME280;50436;50.618;7.932;2022-12-07T06:18:05;96399.41;;;1.93;100.00
64141;BME280;50436;50.618;7.932;2022-12-07T06:20:51;96394.69;;;1.82;100.00
64141;BME280;50436;50.618;7.932;2022-12-07T06:23:37;96405.66;;;1.79;100.00
64141;BME280;50436;50.618;7.932;2022-12-07T06:26:23;96408.91;;;1.81;100.00
64141;BME280;50436;50.618;7.932;2022-12-07T06:29:10;96403.16;;;1.71;100.00
64141;BME280;50436;50.618;7.932;2022-12-07T06:31:56;96412.31;;;1.75;100.00
64141;BME280;50436;50.618;7.932;2022-12-07T06:34:42;96417.84;;;1.80;100.00
64141;BME280;50436;50.618;7.932;2022-12-07T06:37:28;96417.19;;;1.78;100.00
64141;BME280;50436;50.618;7.932;2022-12-07T06:40:14;96425.94;;;1.79;100.00
64141;BME280;50436;50.618;7.932;2022-12-07T06:43:00;96423.63;;;1.69;100.00
64141;BME280;50436;50.618;7.932;2022-12-07T06:45:46;96422.25;;;1.73;100.00
64141;BME280;50436;50.618;7.932;2022-12-07T06:48:32;96410.44;;;1.69;100.00
64141;BME280;50436;50.618;7.932;2022-12-07T06:51:17;96423.63;;;1.69;100.00
64141;BME280;50436;50.618;7.932;2022-12-07T06:54:03;96422.00;;;1.68;100.00
64141;BME280;50436;50.618;7.932;2022-12-07T06:56:50;96426.28;;;1.69;100.00
64141;BME280;50436;50.618;7.932;2022-12-07T06:59:36;96424.69;;;1.75;100.00
64141;BME280;50436;50.618;7.932;2022-12-07T07:02:21;96428.75;;;1.77;100.00
64141;BME280;50436;50.618;7.932;2022-12-07T07:05:07;96421.03;;;1.76;100.00
64141;BME280;50436;50.618;7.932;2022-12-07T07:07:53;96428.81;;;1.84;100.00
64141;BME280;50436;50.618;7.932;2022-12-07T07:10:40;96422.31;;;1.80;100.00
64141;BME280;50436;50.618;7.932;2022-12-07T07:13:28;96430.44;;;1.85;100.00
64141;BME280;50436;50.618;7.932;2022-12-07T07:16:14;96431.66;;;1.82;100.00
64141;BME280;50436;50.618;7.932;2022-12-07T07:18:59;96426.38;;;1.82;100.00
64141;BME280;50436;50.618;7.932;2022-12-07T07:21:45;96437.34;;;1.86;100.00
64141;BME280;50436;50.618;7.932;2022-12-07T07:24:31;96434.91;;;1.84;100.00
64141;BME280;50436;50.618;7.932;2022-12-07T07:27:17;96432.84;;;1.80;100.00
64141;BME280;50436;50.618;7.932;2022-12-07T07:30:04;96430.78;;;1.75;100.00
64141;BME280;50436;50.618;7.932;2022-12-07T07:32:50;96433.84;;;1.79;100.00
64141;BME280;50436;50.618;7.932;2022-12-07T07:35:36;96436.31;;;1.80;100.00
64141;BME280;50436;50.618;7.932;2022-12-07T07:38:22;96432.41;;;1.76;100.00
64141;BME280;50436;50.618;7.932;2022-12-07T07:41:08;96421.00;;;1.69;100.00
64141;BME280;50436;50.618;7.932;2022-12-07T07:43:54;96434.69;;;1.79;100.00
64141;BME280;50436;50.618;7.932;2022-12-07T07:46:40;96438.94;;;1.80;100.00
64141;BME280;50436;50.618;7.932;2022-12-07T07:49:26;96439.13;;;1.79;100.00
64141;BME280;50436;50.618;7.932;2022-12-07T07:52:11;96442.41;;;1.81;100.00
64141;BME280;50436;50.618;7.932;2022-12-07T07:54:57;96437.31;;;1.79;100.00
64141;BME280;50436;50.618;7.932;2022-12-07T07:57:43;96440.53;;;1.75;100.00
64141;BME280;50436;50.618;7.932;2022-12-07T08:00:29;96430.19;;;1.73;100.00
64141;BME280;50436;50.618;7.932;2022-12-07T08:03:15;96438.09;;;1.73;100.00
64141;BME280;50436;50.618;7.932;2022-12-07T08:06:02;96438.72;;;1.75;100.00
64141;BME280;50436;50.618;7.932;2022-12-07T08:08:49;96441.94;;;1.77;100.00
64141;BME280;50436;50.618;7.932;2022-12-07T08:11:35;96434.25;;;1.76;100.00
64141;BME280;50436;50.618;7.932;2022-12-07T08:14:22;96441.59;;;1.80;100.00
64141;BME280;50436;50.618;7.932;2022-12-07T08:17:07;96423.53;;;1.84;100.00
64141;BME280;50436;50.618;7.932;2022-12-07T08:19:53;96432.06;;;1.86;100.00
64141;BME280;50436;50.618;7.932;2022-12-07T08:22:40;96426.81;;;1.92;100.00
64141;BME280;50436;50.618;7.932;2022-12-07T08:25:26;96428.94;;;2.04;100.00
64141;BME280;50436;50.618;7.932;2022-12-07T08:28:12;96438.63;;;1.97;100.00
64141;BME280;50436;50.618;7.932;2022-12-07T08:30:59;96428.00;;;1.83;100.00
64141;BME280;50436;50.618;7.932;2022-12-07T08:33:47;96433.31;;;1.90;100.00
64141;BME280;50436;50.618;7.932;2022-12-07T08:36:33;96435.75;;;1.91;100.00
64141;BME280;50436;50.618;7.932;2022-12-07T08:39:19;96437.34;;;1.86;100.00
64141;BME280;50436;50.618;7.932;2022-12-07T08:42:05;96438.19;;;1.93;100.00
64141;BME280;50436;50.618;7.932;2022-12-07T08:44:50;96450.00;;;1.97;100.00
64141;BME280;50436;50.618;7.932;2022-12-07T08:47:52;96444.28;;;1.93;100.00
64141;BME280;50436;50.618;7.932;2022-12-07T08:50:40;96444.28;;;1.93;100.00
64141;BME280;50436;50.618;7.932;2022-12-07T08:53:27;96445.69;;;1.89;100.00
64141;BME280;50436;50.618;7.932;2022-12-07T08:56:16;96441.84;;;1.92;100.00
64141;BME280;50436;50.618;7.932;2022-12-07T08:59:03;96446.34;;;1.98;100.00
64141;BME280;50436;50.618;7.932;2022-12-07T09:01:49;96452.91;;;2.09;100.00
64141;BME280;50436;50.618;7.932;2022-12-07T09:04:35;96450.94;;;2.24;100.00
64141;BME280;50436;50.618;7.932;2022-12-07T09:07:21;96440.84;;;2.41;100.00
64141;BME280;50436;50.618;7.932;2022-12-07T09:10:07;96435.56;;;2.41;100.00
64141;BME280;50436;50.618;7.932;2022-12-07T09:12:54;96432.69;;;2.29;100.00
64141;BME280;50436;50.618;7.932;2022-12-07T09:15:40;96449.84;;;2.53;100.00
64141;BME280;50436;50.618;7.932;2022-12-07T09:18:25;96445.44;;;2.67;100.00
64141;BME280;50436;50.618;7.932;2022-12-07T09:21:11;96451.50;;;2.61;100.00
64141;BME280;50436;50.618;7.932;2022-12-07T09:23:57;96458.59;;;2.54;100.00
64141;BME280;50436;50.618;7.932;2022-12-07T09:26:43;96457.19;;;2.58;100.00
64141;BME280;50436;50.618;7.932;2022-12-07T09:29:32;96455.50;;;2.43;100.00
64141;BME280;50436;50.618;7.932;2022-12-07T09:32:17;96451.22;;;2.36;100.00
64141;BME280;50436;50.618;7.932;2022-12-07T09:35:03;96453.88;;;2.42;100.00
64141;BME280;50436;50.618;7.932;2022-12-07T09:37:49;96445.69;;;2.31;100.00
64141;BME280;50436;50.618;7.932;2022-12-07T09:40:36;96446.88;;;2.21;100.00
64141;BME280;50436;50.618;7.932;2022-12-07T09:43:24;96446.69;;;2.23;100.00
64141;BME280;50436;50.618;7.932;2022-12-07T09:46:15;96445.28;;;2.27;100.00
64141;BME280;50436;50.618;7.932;2022-12-07T09:49:02;96448.16;;;2.39;100.00
64141;BME280;50436;50.618;7.932;2022-12-07T09:54:54;96444.66;;;2.25;100.00
64141;BME280;50436;50.618;7.932;2022-12-07T09:57:41;96441.78;;;2.20;100.00
64141;BME280;50436;50.618;7.932;2022-12-07T10:00:27;96440.94;;;2.13;100.00
64141;BME280;50436;50.618;7.932;2022-12-07T10:03:14;96442.16;;;2.17;100.00
64141;BME280;50436;50.618;7.932;2022-12-07T10:05:59;96428.19;;;2.23;100.00
64141;BME280;50436;50.618;7.932;2022-12-07T10:08:46;96428.44;;;2.28;100.00
64141;BME280;50436;50.618;7.932;2022-12-07T10:11:32;96429.47;;;2.34;100.00
64141;BME280;50436;50.618;7.932;2022-12-07T10:14:17;96428.09;;;2.44;100.00
64141;BME280;50436;50.618;7.932;2022-12-07T10:17:34;96423.81;;;2.43;100.00
64141;BME280;50436;50.618;7.932;2022-12-07T10:20:25;96418.72;;;2.48;100.00
64141;BME280;50436;50.618;7.932;2022-12-07T10:23:18;96420.22;;;2.58;100.00
64141;BME280;50436;50.618;7.932;2022-12-07T10:29:16;96411.41;;;2.44;100.00
64141;BME280;50436;50.618;7.932;2022-12-07T10:32:32;96418.47;;;2.30;100.00
64141;BME280;50436;50.618;7.932;2022-12-07T10:35:26;96411.50;;;2.16;100.00
64141;BME280;50436;50.618;7.932;2022-12-07T10:38:16;96418.66;;;2.22;100.00
64141;BME280;50436;50.618;7.932;2022-12-07T10:41:06;96404.84;;;2.20;100.00
64141;BME280;50436;50.618;7.932;2022-12-07T10:43:56;96401.31;;;2.06;100.00
64141;BME280;50436;50.618;7.932;2022-12-07T10:50:13;96404.41;;;2.16;100.00
64141;BME280;50436;50.618;7.932;2022-12-07T11:01:33;96388.47;;;2.44;100.00
64141;BME280;50436;50.618;7.932;2022-12-07T11:04:55;96389.28;;;2.51;100.00
64141;BME280;50436;50.618;7.932;2022-12-07T11:11:05;96384.91;;;3.31;100.00
64141;BME280;50436;50.618;7.932;2022-12-07T11:17:01;96391.41;;;3.29;100.00
64141;BME280;50436;50.618;7.932;2022-12-07T11:19:58;96392.22;;;2.96;100.00
64141;BME280;50436;50.618;7.932;2022-12-07T11:23:13;96382.81;;;2.61;100.00
64141;BME280;50436;50.618;7.932;2022-12-07T11:26:14;96378.09;;;2.43;100.00
64141;BME280;50436;50.618;7.932;2022-12-07T11:29:33;96375.47;;;2.43;100.00
64141;BME280;50436;50.618;7.932;2022-12-07T11:32:49;96380.94;;;2.48;100.00
64141;BME280;50436;50.618;7.932;2022-12-07T11:38:53;96370.63;;;2.60;100.00
64141;BME280;50436;50.618;7.932;2022-12-07T11:41:41;96364.53;;;3.19;100.00
64141;BME280;50436;50.618;7.932;2022-12-07T11:44:37;96360.06;;;3.52;100.00
64141;BME280;50436;50.618;7.932;2022-12-07T11:47:40;96351.66;;;4.65;100.00
64141;BME280;50436;50.618;7.932;2022-12-07T11:56:14;96349.09;;;3.22;100.00
64141;BME280;50436;50.618;7.932;2022-12-07T11:59:23;96355.19;;;3.36;100.00
64141;BME280;50436;50.618;7.932;2022-12-07T12:02:16;96347.31;;;3.94;100.00
64141;BME280;50436;50.618;7.932;2022-12-07T12:08:16;96336.69;;;3.43;100.00
64141;BME280;50436;50.618;7.932;2022-12-07T12:15:13;96334.47;;;3.20;100.00
64141;BME280;50436;50.618;7.932;2022-12-07T12:17:56;96325.50;;;3.07;100.00
64141;BME280;50436;50.618;7.932;2022-12-07T12:20:54;96331.22;;;2.85;100.00
64141;BME280;50436;50.618;7.932;2022-12-07T12:23:56;96339.75;;;2.67;100.00
64141;BME280;50436;50.618;7.932;2022-12-07T12:26:52;96341.94;;;2.50;100.00
64141;BME280;50436;50.618;7.932;2022-12-07T12:29:41;96331.56;;;2.42;100.00
64141;BME280;50436;50.618;7.932;2022-12-07T12:32:39;96331.94;;;2.32;100.00
64141;BME280;50436;50.618;7.932;2022-12-07T12:35:33;96328.72;;;2.37;100.00
64141;BME280;50436;50.618;7.932;2022-12-07T12:38:26;96327.91;;;2.36;100.00
64141;BME280;50436;50.618;7.932;2022-12-07T12:50:36;96323.31;;;4.65;100.00
64141;BME280;50436;50.618;7.932;2022-12-07T12:53:24;96322.47;;;4.71;100.00
64141;BME280;50436;50.618;7.932;2022-12-07T12:56:22;96319.22;;;4.69;100.00
64141;BME280;50436;50.618;7.932;2022-12-07T13:08:01;96309.88;;;4.92;100.00
64141;BME280;50436;50.618;7.932;2022-12-07T13:10:48;96298.31;;;4.55;100.00
64141;BME280;50436;50.618;7.932;2022-12-07T13:13:35;96296.25;;;4.25;100.00
64141;BME280;50436;50.618;7.932;2022-12-07T13:20:20;96291.16;;;3.79;100.00
64141;BME280;50436;50.618;7.932;2022-12-07T13:25:30;96295.13;;;3.50;100.00
64141;BME280;50436;50.618;7.932;2022-12-07T13:28:19;96286.66;;;3.21;100.00
64141;BME280;50436;50.618;7.932;2022-12-07T13:34:03;96295.41;;;3.22;100.00
64141;BME280;50436;50.618;7.932;2022-12-07T13:36:50;96283.41;;;3.13;100.00
64141;BME280;50436;50.618;7.932;2022-12-07T13:39:45;96292.56;;;3.03;100.00
64141;BME280;50436;50.618;7.932;2022-12-07T13:42:33;96292.16;;;2.93;100.00
64141;BME280;50436;50.618;7.932;2022-12-07T13:45:27;96304.16;;;2.69;100.00
64141;BME280;50436;50.618;7.932;2022-12-07T13:48:41;96307.56;;;2.30;100.00
64141;BME280;50436;50.618;7.932;2022-12-07T13:51:34;96305.88;;;2.03;100.00
64141;BME280;50436;50.618;7.932;2022-12-07T13:54:21;96305.44;;;1.92;100.00
64141;BME280;50436;50.618;7.932;2022-12-07T13:57:07;96301.34;;;1.83;100.00
64141;BME280;50436;50.618;7.932;2022-12-07T13:59:53;96311.09;;;1.89;100.00
64141;BME280;50436;50.618;7.932;2022-12-07T14:05:42;96301.16;;;1.91;100.00
64141;BME280;50436;50.618;7.932;2022-12-07T14:08:29;96301.78;;;2.00;100.00
64141;BME280;50436;50.618;7.932;2022-12-07T14:11:20;96302.44;;;2.09;100.00
64141;BME280;50436;50.618;7.932;2022-12-07T14:14:06;96299.78;;;1.95;100.00
64141;BME280;50436;50.618;7.932;2022-12-07T14:16:58;96301.41;;;2.03;100.00
64141;BME280;50436;50.618;7.932;2022-12-07T14:20:00;96296.34;;;2.15;100.00
64141;BME280;50436;50.618;7.932;2022-12-07T14:22:54;96286.41;;;2.17;100.00
64141;BME280;50436;50.618;7.932;2022-12-07T14:25:46;96289.28;;;2.22;100.00
64141;BME280;50436;50.618;7.932;2022-12-07T14:28:35;96286.03;;;2.20;100.00
64141;BME280;50436;50.618;7.932;2022-12-07T14:31:24;96281.38;;;2.29;100.00
64141;BME280;50436;50.618;7.932;2022-12-07T14:34:13;96280.16;;;2.31;100.00
64141;BME280;50436;50.618;7.932;2022-12-07T14:36:59;96271.03;;;2.34;100.00
64141;BME280;50436;50.618;7.932;2022-12-07T14:39:45;96266.53;;;2.41;100.00
64141;BME280;50436;50.618;7.932;2022-12-07T14:42:31;96273.06;;;2.51;100.00
64141;BME280;50436;50.618;7.932;2022-12-07T14:45:20;96271.03;;;2.54;100.00
64141;BME280;50436;50.618;7.932;2022-12-07T14:48:14;96263.72;;;2.42;100.00
64141;BME280;50436;50.618;7.932;2022-12-07T14:51:02;96264.91;;;2.33;100.00
64141;BME280;50436;50.618;7.932;2022-12-07T14:53:50;96267.94;;;2.23;100.00
64141;BME280;50436;50.618;7.932;2022-12-07T14:56:37;96268.56;;;2.19;100.00
64141;BME280;50436;50.618;7.932;2022-12-07T14:59:23;96277.06;;;2.14;100.00
64141;BME280;50436;50.618;7.932;2022-12-07T15:02:14;96269.53;;;1.98;100.00
64141;BME280;50436;50.618;7.932;2022-12-07T15:05:00;96268.72;;;1.98;100.00
64141;BME280;50436;50.618;7.932;2022-12-07T15:07:47;96257.09;;;1.92;100.00
64141;BME280;50436;50.618;7.932;2022-12-07T15:10:33;96253.06;;;1.89;100.00
64141;BME280;50436;50.618;7.932;2022-12-07T15:13:19;96253.66;;;1.91;100.00
64141;BME280;50436;50.618;7.932;2022-12-07T15:16:24;96253.22;;;1.81;100.00
64141;BME280;50436;50.618;7.932;2022-12-07T15:19:18;96257.53;;;1.89;100.00
64141;BME280;50436;50.618;7.932;2022-12-07T15:22:05;96246.16;;;1.88;100.00
64141;BME280;50436;50.618;7.932;2022-12-07T15:24:50;96258.75;;;2.00;100.00
64141;BME280;50436;50.618;7.932;2022-12-07T15:27:37;96249.03;;;2.07;100.00
64141;BME280;50436;50.618;7.932;2022-12-07T15:30:23;96251.91;;;2.12;100.00
64141;BME280;50436;50.618;7.932;2022-12-07T15:33:09;96241.72;;;2.15;100.00
64141;BME280;50436;50.618;7.932;2022-12-07T15:35:55;96247.44;;;2.19;100.00
64141;BME280;50436;50.618;7.932;2022-12-07T15:38:41;96237.69;;;2.19;100.00
64141;BME280;50436;50.618;7.932;2022-12-07T15:41:27;96242.97;;;2.13;100.00
64141;BME280;50436;50.618;7.932;2022-12-07T15:44:13;96249.66;;;2.15;100.00
64141;BME280;50436;50.618;7.932;2022-12-07T15:47:18;96242.97;;;2.13;100.00
64141;BME280;50436;50.618;7.932;2022-12-07T15:50:08;96253.91;;;2.10;100.00
64141;BME280;50436;50.618;7.932;2022-12-07T15:52:54;96249.47;;;2.10;100.00
64141;BME280;50436;50.618;7.932;2022-12-07T15:55:40;96237.06;;;2.11;100.00
64141;BME280;50436;50.618;7.932;2022-12-07T15:58:26;96244.19;;;2.10;100.00
64141;BME280;50436;50.618;7.932;2022-12-07T16:01:15;96232.78;;;2.10;100.00
64141;BME280;50436;50.618;7.932;2022-12-07T16:04:01;96235.44;;;2.03;100.00
64141;BME280;50436;50.618;7.932;2022-12-07T16:06:47;96232.97;;;2.02;100.00
64141;BME280;50436;50.618;7.932;2022-12-07T16:09:33;96231.97;;;1.96;100.00
64141;BME280;50436;50.618;7.932;2022-12-07T16:12:18;96220.97;;;1.92;100.00
64141;BME280;50436;50.618;7.932;2022-12-07T16:15:05;96222.75;;;1.79;100.00
64141;BME280;50436;50.618;7.932;2022-12-07T16:17:51;96217.66;;;1.71;100.00
64141;BME280;50436;50.618;7.932;2022-12-07T16:20:37;96222.59;;;1.80;100.00
64141;BME280;50436;50.618;7.932;2022-12-07T16:23:23;96216.66;;;1.78;100.00